createdAt,value
2023-03-30T00:00:36.240Z,-0.40
2023-03-30T00:05:38.227Z,-0.40
2023-03-30T00:10:41.015Z,-0.40
2023-03-30T00:15:42.977Z,-0.50
2023-03-30T00:20:45.202Z,-0.50
2023-03-30T00:25:47.401Z,-0.60
2023-03-30T00:30:50.124Z,-0.70
2023-03-30T00:35:53.665Z,-0.60
2023-03-30T00:40:57.730Z,-0.60
2023-03-30T00:45:59.529Z,-0.60
2023-03-30T00:51:12.266Z,-0.60
2023-03-30T00:56:17.638Z,-0.70
2023-03-30T01:01:28.706Z,-0.80
2023-03-30T01:06:31.685Z,-0.90
2023-03-30T01:11:33.426Z,-0.90
2023-03-30T01:16:41.105Z,-0.90
2023-03-30T01:22:01.573Z,-0.90
2023-03-30T01:27:22.000Z,-0.90
2023-03-30T01:32:51.900Z,-0.80
2023-03-30T01:38:19.834Z,-0.80
2023-03-30T01:43:39.632Z,-0.80
2023-03-30T01:48:48.826Z,-0.80
2023-03-30T01:54:22.865Z,-0.80
2023-03-30T01:59:34.526Z,-0.70
2023-03-30T02:04:40.393Z,-0.70
2023-03-30T02:09:45.575Z,-0.70
2023-03-30T02:14:49.272Z,-0.70
2023-03-30T02:19:52.491Z,-0.70
2023-03-30T02:24:56.262Z,-0.70
2023-03-30T02:29:57.978Z,-0.60
2023-03-30T02:35:19.086Z,-0.50
2023-03-30T02:40:32.575Z,-0.50
2023-03-30T02:45:56.038Z,-0.40
2023-03-30T02:51:14.805Z,-0.40
2023-03-30T02:57:01.617Z,-0.30
2023-03-30T03:02:13.045Z,-0.20
2023-03-30T03:07:14.945Z,-0.20
2023-03-30T03:12:16.737Z,-0.10
2023-03-30T03:17:22.417Z,0.00
2023-03-30T03:22:24.389Z,0.00
2023-03-30T03:27:26.353Z,0.10
2023-03-30T03:32:28.076Z,0.00
2023-03-30T03:37:29.802Z,0.20
2023-03-30T03:42:31.720Z,0.30
2023-03-30T03:47:34.637Z,0.40
2023-03-30T03:52:37.216Z,0.40
2023-03-30T03:57:39.293Z,0.50
2023-03-30T04:02:45.171Z,0.60
2023-03-30T04:07:47.000Z,0.50
2023-03-30T04:12:48.921Z,0.60
2023-03-30T04:17:58.229Z,0.60
2023-03-30T04:23:02.136Z,0.70
2023-03-30T04:28:05.371Z,0.70
2023-03-30T04:33:09.809Z,0.70
2023-03-30T04:38:12.294Z,0.70
2023-03-30T04:43:14.567Z,0.80
2023-03-30T04:48:16.579Z,0.80
2023-03-30T04:53:19.122Z,0.80
2023-03-30T04:58:20.945Z,0.80
2023-03-30T05:03:23.689Z,0.90
2023-03-30T05:08:25.635Z,1.00
2023-03-30T05:13:27.382Z,0.90
2023-03-30T05:18:29.300Z,1.00
2023-03-30T05:23:31.603Z,1.00
2023-03-30T05:28:34.087Z,1.00
2023-03-30T05:33:35.821Z,1.00
2023-03-30T05:38:37.740Z,1.10
2023-03-30T05:43:39.599Z,1.00
2023-03-30T05:48:41.327Z,1.10
2023-03-30T05:53:45.186Z,1.10
2023-03-30T05:58:47.058Z,1.20
2023-03-30T06:03:49.069Z,1.30
2023-03-30T06:08:51.358Z,1.40
2023-03-30T06:13:53.439Z,1.40
2023-03-30T06:18:55.282Z,1.40
2023-03-30T06:23:57.287Z,1.40
2023-03-30T06:28:59.129Z,1.50
2023-03-30T06:34:01.059Z,1.50
2023-03-30T06:39:06.536Z,1.50
2023-03-30T06:44:10.314Z,1.50
2023-03-30T06:49:13.063Z,1.40
2023-03-30T06:54:14.973Z,1.30
2023-03-30T06:59:17.168Z,1.30
2023-03-30T07:04:18.996Z,1.40
2023-03-30T07:09:20.973Z,1.50
2023-03-30T07:14:22.941Z,1.50
2023-03-30T07:19:24.657Z,1.50
2023-03-30T07:24:26.828Z,1.60
2023-03-30T07:29:29.342Z,1.60
2023-03-30T07:34:31.694Z,1.60
2023-03-30T07:39:34.088Z,1.60
2023-03-30T07:44:36.044Z,1.60
2023-03-30T07:49:37.956Z,1.70
2023-03-30T07:54:39.929Z,1.70
2023-03-30T07:59:41.657Z,1.80
2023-03-30T08:04:44.517Z,1.80
2023-03-30T08:09:46.384Z,1.90
2023-03-30T08:14:48.245Z,2.00
2023-03-30T08:19:50.158Z,2.00
2023-03-30T08:24:52.149Z,1.90
2023-03-30T08:29:54.415Z,2.00
2023-03-30T08:34:56.250Z,2.00
2023-03-30T08:39:58.001Z,2.10
2023-03-30T08:45:05.285Z,2.10
2023-03-30T08:50:15.271Z,2.20
2023-03-30T08:55:35.121Z,2.50
2023-03-30T09:00:37.089Z,2.60
2023-03-30T09:05:46.166Z,2.70
2023-03-30T09:10:56.775Z,3.00
2023-03-30T09:16:09.428Z,3.10
2023-03-30T09:21:13.436Z,3.00
2023-03-30T09:26:28.646Z,2.90
2023-03-30T09:31:44.939Z,3.10
2023-03-30T09:37:05.923Z,3.20
2023-03-30T09:42:37.415Z,3.20
2023-03-30T09:47:42.424Z,3.30
2023-03-30T09:53:07.163Z,3.40
2023-03-30T09:58:19.603Z,3.70
2023-03-30T10:03:23.636Z,3.50
2023-03-30T10:08:25.656Z,3.70
2023-03-30T10:13:41.348Z,3.50
2023-03-30T10:18:45.522Z,3.60
2023-03-30T10:24:01.400Z,3.90
2023-03-30T10:29:11.246Z,4.20
2023-03-30T10:34:50.917Z,4.70
2023-03-30T10:39:53.127Z,4.70
2023-03-30T10:45:04.473Z,4.60
2023-03-30T10:50:27.865Z,4.80
2023-03-30T10:55:50.048Z,5.40
2023-03-30T11:01:11.856Z,5.30
2023-03-30T11:06:23.056Z,5.20
2023-03-30T11:11:48.943Z,5.50
2023-03-30T11:17:00.102Z,5.20
2023-03-30T11:22:11.599Z,5.40
2023-03-30T11:27:29.336Z,5.50
2023-03-30T11:32:56.537Z,5.30
2023-03-30T11:38:11.724Z,5.60
2023-03-30T11:43:19.073Z,5.70
2023-03-30T11:48:38.278Z,5.90
2023-03-30T11:53:48.763Z,5.60
2023-03-30T11:59:31.882Z,6.10
2023-03-30T12:04:44.019Z,6.50
2023-03-30T12:10:04.641Z,6.80
2023-03-30T12:15:32.693Z,6.70
2023-03-30T12:20:48.966Z,6.20
2023-03-30T12:26:10.628Z,5.60
2023-03-30T12:31:12.672Z,5.50
2023-03-30T12:36:38.375Z,5.80
2023-03-30T12:41:48.630Z,5.30
2023-03-30T12:47:18.548Z,5.50
2023-03-30T12:52:51.449Z,5.70
2023-03-30T12:58:26.702Z,5.90
2023-03-30T13:04:07.744Z,6.20
2023-03-30T13:09:15.785Z,6.10
2023-03-30T13:14:34.187Z,6.00
2023-03-30T13:19:37.329Z,5.60
2023-03-30T13:24:42.169Z,5.50
2023-03-30T13:30:14.248Z,5.40
2023-03-30T13:35:31.075Z,5.40
2023-03-30T13:41:06.250Z,5.40
2023-03-30T13:46:22.118Z,5.20
2023-03-30T13:51:27.618Z,5.20
2023-03-30T13:56:36.492Z,5.20
2023-03-30T14:01:40.429Z,5.50
2023-03-30T14:06:49.384Z,5.30
2023-03-30T14:11:55.503Z,5.40
2023-03-30T14:17:00.024Z,5.40
2023-03-30T14:22:17.841Z,5.60
2023-03-30T14:27:19.619Z,5.60
2023-03-30T14:32:23.517Z,5.50
2023-03-30T14:37:26.491Z,5.70
2023-03-30T14:42:34.309Z,5.70
2023-03-30T14:47:37.756Z,5.50
2023-03-30T14:52:42.484Z,5.20
2023-03-30T14:57:44.809Z,5.20
2023-03-30T15:02:53.986Z,5.10
2023-03-30T15:07:55.987Z,5.00
2023-03-30T15:12:58.270Z,5.00
2023-03-30T15:18:02.708Z,5.00
2023-03-30T15:23:04.752Z,5.10
2023-03-30T15:28:11.775Z,5.40
2023-03-30T15:33:39.753Z,5.30
2023-03-30T15:38:49.467Z,5.10
2023-03-30T15:44:09.279Z,5.10
2023-03-30T15:49:15.415Z,5.00
2023-03-30T15:54:34.567Z,5.00
2023-03-30T15:59:44.924Z,4.80
2023-03-30T16:04:49.081Z,4.80
2023-03-30T16:09:51.746Z,4.70
2023-03-30T16:14:54.278Z,4.60
2023-03-30T16:19:56.050Z,4.50
2023-03-30T16:24:57.810Z,4.50
2023-03-30T16:29:59.555Z,4.40
2023-03-30T16:35:01.515Z,4.30
2023-03-30T16:40:26.995Z,4.20
2023-03-30T16:45:29.254Z,4.10
2023-03-30T16:50:46.183Z,4.00
2023-03-30T16:55:48.200Z,3.90
2023-03-30T17:00:52.893Z,3.90
2023-03-30T17:05:54.969Z,3.90
2023-03-30T17:11:03.850Z,4.00
2023-03-30T17:16:06.164Z,3.90
2023-03-30T17:21:10.642Z,3.90
2023-03-30T17:26:12.932Z,3.80
2023-03-30T17:31:24.000Z,3.70
2023-03-30T17:36:26.617Z,3.50
2023-03-30T17:41:28.427Z,3.40
2023-03-30T17:46:30.320Z,3.20
2023-03-30T17:51:32.050Z,3.00
2023-03-30T17:56:33.804Z,2.80
2023-03-30T18:01:36.353Z,2.60
2023-03-30T18:06:38.383Z,2.60
2023-03-30T18:11:40.207Z,2.70
2023-03-30T18:16:43.812Z,2.60
2023-03-30T18:21:45.778Z,2.70
2023-03-30T18:26:47.587Z,2.90
2023-03-30T18:31:49.525Z,3.00
2023-03-30T18:36:51.757Z,3.10
2023-03-30T18:41:53.534Z,3.10
2023-03-30T18:46:55.508Z,3.20
2023-03-30T18:51:57.246Z,3.10
2023-03-30T18:57:00.526Z,3.20
2023-03-30T19:02:02.495Z,3.20
2023-03-30T19:07:05.663Z,3.20
2023-03-30T19:12:12.044Z,3.00
2023-03-30T19:17:15.724Z,3.00
2023-03-30T19:22:17.862Z,3.00
2023-03-30T19:27:19.713Z,2.90
2023-03-30T19:32:21.450Z,2.80
2023-03-30T19:37:23.470Z,2.80
2023-03-30T19:42:26.658Z,2.80
2023-03-30T19:47:32.022Z,2.80
2023-03-30T19:52:33.787Z,2.90
2023-03-30T19:57:36.478Z,2.90
2023-03-30T20:02:42.549Z,2.90
2023-03-30T20:07:45.940Z,2.90
2023-03-30T20:12:48.737Z,2.60
2023-03-30T20:17:58.530Z,2.60
2023-03-30T20:23:00.972Z,2.50
2023-03-30T20:28:03.370Z,2.60
2023-03-30T20:33:07.772Z,2.50
2023-03-30T20:38:10.390Z,2.50
2023-03-30T20:43:12.123Z,2.50
2023-03-30T20:48:27.647Z,2.30
2023-03-30T20:53:30.633Z,2.30
2023-03-30T20:58:32.423Z,2.20
2023-03-30T21:03:35.526Z,2.30
2023-03-30T21:08:37.458Z,2.30
2023-03-30T21:13:39.241Z,2.30
2023-03-30T21:18:41.262Z,2.40
2023-03-30T21:23:44.172Z,2.40
2023-03-30T21:28:46.157Z,2.50
2023-03-30T21:33:47.888Z,2.50
2023-03-30T21:38:49.726Z,2.50
2023-03-30T21:43:52.756Z,2.60
2023-03-30T21:48:54.886Z,2.60
2023-03-30T21:53:57.806Z,2.60
2023-03-30T21:58:59.796Z,2.60
2023-03-30T22:04:02.693Z,2.60
2023-03-30T22:09:06.465Z,2.70
2023-03-30T22:14:08.353Z,2.70
2023-03-30T22:19:10.119Z,2.70
2023-03-30T22:24:12.485Z,2.70
2023-03-30T22:29:14.400Z,2.70
2023-03-30T22:34:16.256Z,2.70
2023-03-30T22:39:18.310Z,2.60
2023-03-30T22:44:20.636Z,2.60
2023-03-30T22:49:24.836Z,2.60
2023-03-30T22:54:26.572Z,2.50
2023-03-30T22:59:29.741Z,2.60
2023-03-30T23:04:31.456Z,2.60
2023-03-30T23:09:33.531Z,2.60
2023-03-30T23:14:37.997Z,2.60
2023-03-30T23:19:40.255Z,2.70
2023-03-30T23:24:42.425Z,2.70
2023-03-30T23:29:44.361Z,2.70
2023-03-30T23:34:46.749Z,2.70
2023-03-30T23:39:49.006Z,2.60
2023-03-30T23:44:50.757Z,2.70
2023-03-30T23:49:52.557Z,2.70
2023-03-30T23:54:54.321Z,2.80
2023-03-30T23:59:56.201Z,2.80
